createdAt,value
2023-01-11T00:00:27.736Z,14.93
2023-01-11T00:02:58.264Z,21.17
2023-01-11T00:05:24.768Z,22.67
2023-01-11T00:07:51.740Z,18.13
2023-01-11T00:10:19.083Z,16.88
2023-01-11T00:12:46.582Z,14.25
2023-01-11T00:15:13.725Z,16.30
2023-01-11T00:17:41.551Z,16.30
2023-01-11T00:20:11.685Z,17.70
2023-01-11T00:22:38.145Z,15.80
2023-01-11T00:25:04.983Z,18.90
2023-01-11T00:27:31.554Z,17.55
2023-01-11T00:29:58.043Z,16.33
2023-01-11T00:32:24.674Z,12.05
2023-01-11T00:34:51.013Z,14.18
2023-01-11T00:37:17.447Z,15.10
2023-01-11T00:39:43.881Z,18.23
2023-01-11T00:42:30.574Z,16.40
2023-01-11T00:45:15.436Z,13.68
2023-01-11T00:48:00.355Z,15.13
2023-01-11T00:50:30.030Z,14.55
2023-01-11T00:52:58.457Z,16.80
2023-01-11T00:55:26.090Z,18.17
2023-01-11T00:57:53.136Z,16.75
2023-01-11T01:00:21.257Z,14.38
2023-01-11T01:02:48.302Z,19.65
2023-01-11T01:05:15.447Z,17.90
2023-01-11T01:07:42.049Z,17.85
2023-01-11T01:10:09.875Z,12.70
2023-01-11T01:12:55.177Z,16.95
2023-01-11T01:15:21.853Z,13.70
2023-01-11T01:17:48.443Z,21.48
2023-01-11T01:20:15.655Z,16.50
2023-01-11T01:22:42.398Z,15.55
2023-01-11T01:25:09.266Z,13.80
2023-01-11T01:27:35.826Z,14.45
2023-01-11T01:30:02.267Z,16.02
2023-01-11T01:32:28.615Z,17.40
2023-01-11T01:34:55.017Z,14.27
2023-01-11T01:37:21.418Z,17.50
2023-01-11T01:39:47.784Z,11.70
2023-01-11T01:42:15.761Z,20.90
2023-01-11T01:45:06.837Z,14.00
2023-01-11T01:47:42.116Z,15.00
2023-01-11T01:50:39.914Z,15.13
2023-01-11T01:53:11.213Z,16.73
2023-01-11T01:55:41.082Z,16.80
2023-01-11T01:58:16.255Z,10.50
2023-01-11T02:00:44.680Z,12.18
2023-01-11T02:03:31.215Z,9.82
2023-01-11T02:05:57.611Z,13.25
2023-01-11T02:08:37.720Z,11.50
2023-01-11T02:11:24.763Z,14.25
2023-01-11T02:13:51.205Z,16.15
2023-01-11T02:16:17.792Z,16.05
2023-01-11T02:18:44.227Z,18.30
2023-01-11T02:21:25.561Z,20.92
2023-01-11T02:24:18.751Z,13.90
2023-01-11T02:27:17.200Z,14.07
2023-01-11T02:30:01.811Z,17.20
2023-01-11T02:33:05.476Z,18.63
2023-01-11T02:35:34.761Z,16.77
2023-01-11T02:38:13.094Z,12.40
2023-01-11T02:41:10.179Z,9.00
2023-01-11T02:43:58.897Z,10.93
2023-01-11T02:46:47.949Z,12.60
2023-01-11T02:49:30.784Z,9.43
2023-01-11T02:52:12.778Z,8.20
2023-01-11T02:54:44.205Z,8.35
2023-01-11T02:57:12.093Z,6.72
2023-01-11T02:59:40.315Z,11.25
2023-01-11T03:02:06.761Z,9.05
2023-01-11T03:04:35.678Z,11.25
2023-01-11T03:07:11.954Z,6.50
2023-01-11T03:09:55.891Z,6.47
2023-01-11T03:12:48.282Z,8.35
2023-01-11T03:15:30.240Z,6.70
2023-01-11T03:18:42.396Z,4.43
2023-01-11T03:21:32.806Z,7.78
2023-01-11T03:24:12.823Z,4.45
2023-01-11T03:27:21.783Z,8.13
2023-01-11T03:29:54.420Z,5.10
2023-01-11T03:32:36.671Z,6.30
2023-01-11T03:35:32.129Z,6.18
2023-01-11T03:38:13.689Z,4.28
2023-01-11T03:40:46.503Z,5.05
2023-01-11T03:43:16.403Z,5.18
2023-01-11T03:46:07.240Z,6.38
2023-01-11T03:48:50.766Z,4.60
2023-01-11T03:51:27.854Z,6.40
2023-01-11T03:53:59.237Z,8.70
2023-01-11T03:56:36.178Z,6.10
2023-01-11T03:59:02.867Z,8.88
2023-01-11T04:01:29.647Z,4.93
2023-01-11T04:03:56.080Z,4.97
2023-01-11T04:06:24.065Z,8.77
2023-01-11T04:08:50.539Z,5.05
2023-01-11T04:11:17.158Z,6.10
2023-01-11T04:13:43.514Z,4.68
2023-01-11T04:16:10.024Z,3.55
2023-01-11T04:18:36.451Z,2.85
2023-01-11T04:21:02.973Z,5.20
2023-01-11T04:23:29.366Z,3.80
2023-01-11T04:25:55.812Z,7.00
2023-01-11T04:28:22.289Z,4.00
2023-01-11T04:30:48.654Z,4.68
2023-01-11T04:33:15.122Z,2.83
2023-01-11T04:35:42.089Z,3.45
2023-01-11T04:38:08.633Z,3.35
2023-01-11T04:40:35.017Z,3.35
2023-01-11T04:43:02.393Z,4.68
2023-01-11T04:45:30.033Z,3.50
2023-01-11T04:47:57.843Z,4.28
2023-01-11T04:50:25.168Z,4.18
2023-01-11T04:52:52.089Z,6.25
2023-01-11T04:55:19.587Z,6.45
2023-01-11T04:57:47.047Z,4.32
2023-01-11T05:00:15.877Z,5.72
2023-01-11T05:02:42.286Z,4.57
2023-01-11T05:05:10.469Z,3.95
2023-01-11T05:07:38.691Z,4.10
2023-01-11T05:10:05.881Z,5.10
2023-01-11T05:12:32.312Z,3.75
2023-01-11T05:14:59.150Z,3.85
2023-01-11T05:17:25.538Z,3.38
2023-01-11T05:19:52.018Z,6.55
2023-01-11T05:22:18.407Z,3.42
2023-01-11T05:24:44.746Z,3.70
2023-01-11T05:27:11.104Z,5.45
2023-01-11T05:29:37.577Z,5.30
2023-01-11T05:32:04.300Z,3.95
2023-01-11T05:34:30.693Z,4.35
2023-01-11T05:36:57.158Z,4.57
2023-01-11T05:39:23.831Z,7.18
2023-01-11T05:41:50.236Z,5.70
2023-01-11T05:44:35.724Z,3.08
2023-01-11T05:47:02.282Z,3.92
2023-01-11T05:49:28.640Z,6.63
2023-01-11T05:51:55.221Z,3.13
2023-01-11T05:54:21.741Z,4.97
2023-01-11T05:56:48.302Z,3.35
2023-01-11T05:59:14.801Z,4.15
2023-01-11T06:01:41.275Z,3.08
2023-01-11T06:04:08.402Z,5.60
2023-01-11T06:06:35.394Z,2.95
2023-01-11T06:09:02.088Z,4.03
2023-01-11T06:11:28.637Z,3.30
2023-01-11T06:13:55.293Z,4.00
2023-01-11T06:16:22.191Z,2.60
2023-01-11T06:18:52.945Z,3.42
2023-01-11T06:21:20.010Z,2.80
2023-01-11T06:23:48.677Z,2.60
2023-01-11T06:26:16.668Z,5.30
2023-01-11T06:28:43.598Z,3.75
2023-01-11T06:31:10.897Z,3.83
2023-01-11T06:33:37.863Z,4.15
2023-01-11T06:36:09.052Z,2.58
2023-01-11T06:38:36.236Z,3.70
2023-01-11T06:41:04.672Z,5.80
2023-01-11T06:43:31.878Z,6.22
2023-01-11T06:45:58.981Z,5.85
2023-01-11T06:48:27.320Z,4.85
2023-01-11T06:50:56.612Z,8.40
2023-01-11T06:53:26.750Z,3.85
2023-01-11T06:55:56.679Z,4.47
2023-01-11T06:58:24.364Z,6.55
2023-01-11T07:00:52.585Z,3.00
2023-01-11T07:03:20.553Z,3.47
2023-01-11T07:05:47.222Z,4.05
2023-01-11T07:08:13.688Z,14.50
2023-01-11T07:10:40.233Z,4.53
2023-01-11T07:13:06.757Z,5.38
2023-01-11T07:15:33.129Z,5.70
2023-01-11T07:18:00.443Z,5.07
2023-01-11T07:20:27.386Z,13.10
2023-01-11T07:22:59.210Z,5.78
2023-01-11T07:25:32.397Z,9.40
2023-01-11T07:28:00.132Z,7.68
2023-01-11T07:30:28.868Z,6.70
2023-01-11T07:32:57.841Z,6.82
2023-01-11T07:35:24.439Z,5.18
2023-01-11T07:37:50.889Z,5.70
2023-01-11T07:40:18.429Z,7.90
2023-01-11T07:43:12.612Z,6.57
2023-01-11T07:45:45.952Z,6.25
2023-01-11T07:48:14.033Z,7.35
2023-01-11T07:50:43.436Z,7.32
2023-01-11T07:53:11.177Z,5.30
2023-01-11T07:55:39.554Z,9.07
2023-01-11T07:58:06.927Z,7.90
2023-01-11T08:00:33.290Z,6.25
2023-01-11T08:03:00.888Z,9.15
2023-01-11T08:05:27.375Z,6.85
2023-01-11T08:07:53.813Z,10.90
2023-01-11T08:10:20.292Z,7.32
2023-01-11T08:13:09.488Z,9.93
2023-01-11T08:15:40.159Z,11.23
2023-01-11T08:18:11.679Z,10.70
2023-01-11T08:20:39.495Z,10.27
2023-01-11T08:23:10.766Z,11.48
2023-01-11T08:25:37.951Z,10.35
2023-01-11T08:28:07.377Z,7.28
2023-01-11T08:30:35.091Z,10.75
2023-01-11T08:33:05.784Z,12.18
2023-01-11T08:35:38.959Z,13.27
2023-01-11T08:38:05.581Z,8.85
2023-01-11T08:40:32.214Z,10.20
2023-01-11T08:42:59.075Z,8.98
2023-01-11T08:45:25.976Z,9.45
2023-01-11T08:47:53.228Z,8.65
2023-01-11T08:50:21.309Z,6.88
2023-01-11T08:52:49.468Z,12.40
2023-01-11T08:55:16.160Z,6.63
2023-01-11T08:57:42.840Z,6.70
2023-01-11T09:00:09.673Z,8.48
2023-01-11T09:02:36.224Z,10.63
2023-01-11T09:05:03.050Z,11.63
2023-01-11T09:07:29.430Z,10.07
2023-01-11T09:09:55.782Z,8.02
2023-01-11T09:12:22.315Z,11.75
2023-01-11T09:14:48.717Z,7.68
2023-01-11T09:17:15.090Z,20.20
2023-01-11T09:19:41.575Z,11.60
2023-01-11T09:22:07.956Z,10.50
2023-01-11T09:24:34.532Z,10.45
2023-01-11T09:27:00.989Z,8.45
2023-01-11T09:29:27.731Z,7.88
2023-01-11T09:31:54.523Z,9.90
2023-01-11T09:34:21.526Z,10.93
2023-01-11T09:36:48.931Z,16.10
2023-01-11T09:39:18.753Z,12.82
2023-01-11T09:42:05.253Z,8.93
2023-01-11T09:44:42.050Z,9.57
2023-01-11T09:47:30.305Z,12.27
2023-01-11T09:50:00.710Z,11.48
2023-01-11T09:52:38.220Z,12.25
2023-01-11T09:55:16.593Z,12.05
2023-01-11T09:58:07.788Z,14.13
2023-01-11T10:00:54.097Z,20.23
2023-01-11T10:03:43.218Z,9.05
2023-01-11T10:06:23.053Z,14.15
2023-01-11T10:18:25.682Z,12.13
2023-01-11T10:18:29.556Z,11.15
2023-01-11T10:21:13.147Z,11.85
2023-01-11T10:23:47.384Z,11.80
2023-01-11T10:26:27.081Z,8.63
2023-01-11T10:29:27.539Z,12.70
2023-01-11T10:32:13.660Z,19.85
2023-01-11T10:34:50.449Z,10.32
2023-01-11T10:37:32.168Z,7.63
2023-01-11T10:40:39.460Z,11.20
2023-01-11T10:43:16.991Z,11.05
2023-01-11T10:48:43.227Z,11.77
2023-01-11T10:51:29.809Z,9.45
2023-01-11T10:54:16.423Z,8.32
2023-01-11T10:57:11.190Z,10.82
2023-01-11T11:00:25.898Z,13.77
2023-01-11T11:03:08.963Z,6.07
2023-01-11T11:06:00.885Z,10.57
2023-01-11T11:09:02.312Z,10.15
2023-01-11T11:11:37.851Z,8.18
2023-01-11T11:14:15.519Z,9.57
2023-01-11T11:17:03.332Z,8.50
2023-01-11T11:19:32.800Z,12.15
2023-01-11T11:21:59.789Z,10.02
2023-01-11T11:24:42.226Z,13.18
2023-01-11T11:27:19.535Z,11.50
2023-01-11T11:29:54.085Z,7.20
2023-01-11T11:32:26.521Z,10.20
2023-01-11T11:34:53.625Z,14.88
2023-01-11T11:37:27.129Z,8.57
2023-01-11T11:39:54.887Z,12.55
2023-01-11T11:42:22.730Z,9.65
2023-01-11T11:45:10.875Z,11.07
2023-01-11T11:47:38.053Z,19.27
2023-01-11T11:50:42.732Z,8.55
2023-01-11T11:53:21.262Z,9.95
2023-01-11T11:55:47.769Z,17.13
2023-01-11T11:58:19.943Z,7.25
2023-01-11T12:00:49.329Z,11.88
2023-01-11T12:03:28.243Z,10.85
2023-01-11T12:06:03.762Z,18.30
2023-01-11T12:08:32.531Z,17.52
2023-01-11T12:11:06.437Z,12.98
2023-01-11T12:13:42.307Z,11.77
2023-01-11T12:16:22.835Z,9.05
2023-01-11T12:18:49.374Z,10.82
2023-01-11T12:21:21.459Z,12.02
2023-01-11T12:24:07.703Z,14.70
2023-01-11T12:26:39.953Z,11.88
2023-01-11T12:29:28.317Z,17.35
2023-01-11T12:32:05.747Z,11.30
2023-01-11T12:34:53.752Z,11.43
2023-01-11T12:37:41.932Z,11.93
2023-01-11T12:40:23.990Z,16.75
2023-01-11T12:43:02.457Z,12.13
2023-01-11T12:45:47.741Z,13.68
2023-01-11T12:48:49.742Z,16.35
2023-01-11T12:51:30.597Z,15.52
2023-01-11T12:54:09.218Z,12.15
2023-01-11T12:56:53.851Z,16.13
2023-01-11T13:00:02.235Z,14.82
2023-01-11T13:02:58.382Z,18.13
2023-01-11T13:05:31.814Z,12.75
2023-01-11T13:08:19.182Z,16.27
2023-01-11T13:11:04.762Z,10.75
2023-01-11T13:14:00.055Z,13.70
2023-01-11T13:16:39.437Z,13.85
2023-01-11T13:19:14.199Z,14.75
2023-01-11T13:21:44.543Z,10.63
2023-01-11T13:24:15.691Z,12.65
2023-01-11T13:26:45.449Z,18.35
2023-01-11T13:29:20.162Z,14.30
2023-01-11T13:31:48.359Z,19.63
2023-01-11T13:34:25.365Z,24.63
2023-01-11T13:36:57.626Z,17.48
2023-01-11T13:39:41.976Z,16.42
2023-01-11T13:42:21.451Z,16.48
2023-01-11T13:44:58.272Z,14.57
2023-01-11T13:47:35.156Z,23.65
2023-01-11T13:50:20.114Z,23.38
2023-01-11T13:52:52.629Z,15.07
2023-01-11T13:55:43.227Z,19.80
2023-01-11T13:58:28.971Z,16.90
2023-01-11T14:01:10.514Z,14.85
2023-01-11T14:04:00.968Z,10.10
2023-01-11T14:06:44.140Z,27.42
2023-01-11T14:09:42.284Z,20.58
2023-01-11T14:12:42.505Z,14.13
2023-01-11T14:15:21.657Z,14.07
2023-01-11T14:18:05.640Z,13.25
2023-01-11T14:20:51.477Z,11.15
2023-01-11T14:23:21.161Z,16.45
2023-01-11T14:25:59.705Z,19.30
2023-01-11T14:28:53.787Z,15.70
2023-01-11T14:31:35.930Z,17.65
2023-01-11T14:34:36.075Z,15.30
2023-01-11T14:37:23.568Z,14.15
2023-01-11T14:40:26.730Z,14.73
2023-01-11T14:43:12.722Z,17.80
2023-01-11T14:46:09.805Z,14.98
2023-01-11T14:48:48.522Z,8.38
2023-01-11T14:51:33.959Z,21.23
2023-01-11T14:54:12.800Z,19.67
2023-01-11T14:56:41.900Z,14.05
2023-01-11T14:59:31.172Z,17.30
2023-01-11T15:02:03.785Z,17.95
2023-01-11T15:04:33.297Z,18.10
2023-01-11T15:07:00.591Z,16.90
2023-01-11T15:09:50.012Z,14.18
2023-01-11T15:12:22.362Z,14.77
2023-01-11T15:15:02.339Z,13.18
2023-01-11T15:17:48.499Z,16.30
2023-01-11T15:20:18.921Z,18.65
2023-01-11T15:22:46.340Z,18.60
2023-01-11T15:25:33.536Z,12.43
2023-01-11T15:28:04.158Z,17.95
2023-01-11T15:30:30.492Z,13.75
2023-01-11T15:33:19.071Z,16.95
2023-01-11T15:35:57.556Z,18.65
2023-01-11T15:38:31.038Z,16.65
2023-01-11T15:41:21.444Z,10.30
2023-01-11T15:44:14.010Z,19.33
2023-01-11T15:47:01.851Z,13.40
2023-01-11T15:49:30.978Z,19.17
2023-01-11T15:52:34.975Z,15.48
2023-01-11T15:55:30.437Z,11.38
2023-01-11T15:58:11.946Z,17.77
2023-01-11T16:00:59.346Z,14.63
2023-01-11T16:03:56.045Z,16.40
2023-01-11T16:06:42.967Z,13.23
2023-01-11T16:09:29.728Z,14.52
2023-01-11T16:12:07.189Z,16.77
2023-01-11T16:15:06.729Z,23.42
2023-01-11T16:17:33.180Z,24.17
2023-01-11T16:20:27.441Z,19.33
2023-01-11T16:23:00.127Z,17.33
2023-01-11T16:25:36.819Z,14.70
2023-01-11T16:28:03.968Z,20.02
2023-01-11T16:30:30.613Z,12.95
2023-01-11T16:33:21.107Z,12.07
2023-01-11T16:35:48.312Z,17.73
2023-01-11T16:38:22.319Z,25.90
2023-01-11T16:40:52.528Z,13.32
2023-01-11T16:43:33.355Z,18.02
2023-01-11T16:45:59.826Z,12.07
2023-01-11T16:48:30.084Z,13.82
2023-01-11T16:51:02.717Z,19.40
2023-01-11T16:53:31.942Z,23.77
2023-01-11T16:56:05.216Z,15.80
2023-01-11T16:58:37.050Z,22.50
2023-01-11T17:01:06.616Z,16.42
2023-01-11T17:03:48.745Z,23.25
2023-01-11T17:06:19.489Z,14.50
2023-01-11T17:08:54.364Z,13.02
2023-01-11T17:11:46.168Z,27.73
2023-01-11T17:14:27.499Z,14.40
2023-01-11T17:16:59.952Z,17.92
2023-01-11T17:19:30.385Z,28.20
2023-01-11T17:22:07.341Z,16.77
2023-01-11T17:24:39.989Z,17.98
2023-01-11T17:27:09.233Z,16.60
2023-01-11T17:29:38.938Z,14.13
2023-01-11T17:32:13.321Z,20.55
2023-01-11T17:34:40.157Z,15.98
2023-01-11T17:37:12.269Z,21.15
2023-01-11T17:39:49.919Z,18.52
2023-01-11T17:42:36.358Z,21.95
2023-01-11T17:45:15.572Z,18.73
2023-01-11T17:47:47.496Z,22.90
2023-01-11T17:50:31.676Z,14.75
2023-01-11T17:53:04.107Z,23.25
2023-01-11T17:55:30.768Z,20.63
2023-01-11T17:58:19.704Z,20.65
2023-01-11T18:01:09.692Z,20.58
2023-01-11T18:03:58.907Z,14.82
2023-01-11T18:06:35.175Z,17.40
2023-01-11T18:09:05.233Z,21.55
2023-01-11T18:11:37.055Z,17.50
2023-01-11T18:14:07.116Z,16.17
2023-01-11T18:16:34.283Z,21.75
2023-01-11T18:19:00.906Z,18.73
2023-01-11T18:21:54.480Z,18.52
2023-01-11T18:24:29.625Z,26.85
2023-01-11T18:27:29.505Z,22.65
2023-01-11T18:29:58.171Z,16.67
2023-01-11T18:32:26.159Z,19.95
2023-01-11T18:34:54.420Z,22.20
2023-01-11T18:37:21.339Z,23.35
2023-01-11T18:39:50.165Z,21.38
2023-01-11T18:42:19.540Z,23.13
2023-01-11T18:44:49.163Z,22.75
2023-01-11T18:47:20.375Z,20.02
2023-01-11T18:49:53.325Z,15.77
2023-01-11T18:52:25.394Z,21.98
2023-01-11T18:54:51.968Z,27.45
2023-01-11T18:57:22.674Z,24.85
2023-01-11T18:59:50.159Z,15.15
2023-01-11T19:02:31.241Z,21.02
2023-01-11T19:04:57.819Z,22.45
2023-01-11T19:07:25.986Z,23.13
2023-01-11T19:09:55.677Z,22.95
2023-01-11T19:12:25.043Z,20.80
2023-01-11T19:14:51.654Z,18.67
2023-01-11T19:17:19.151Z,22.23
2023-01-11T19:19:45.873Z,18.35
2023-01-11T19:22:13.062Z,22.63
2023-01-11T19:24:40.066Z,24.88
2023-01-11T19:27:06.766Z,26.08
2023-01-11T19:29:33.240Z,30.25
2023-01-11T19:31:59.817Z,21.08
2023-01-11T19:34:26.274Z,17.50
2023-01-11T19:36:52.887Z,28.77
2023-01-11T19:39:19.579Z,15.07
2023-01-11T19:41:55.225Z,22.23
2023-01-11T19:44:22.756Z,20.95
2023-01-11T19:47:00.360Z,22.35
2023-01-11T19:49:36.230Z,16.58
2023-01-11T19:52:02.848Z,25.27
2023-01-11T19:54:30.446Z,25.40
2023-01-11T19:56:56.881Z,21.65
2023-01-11T19:59:23.320Z,27.20
2023-01-11T20:01:49.962Z,25.15
2023-01-11T20:04:16.430Z,24.67
2023-01-11T20:06:53.793Z,22.83
2023-01-11T20:09:21.542Z,19.33
2023-01-11T20:11:53.094Z,21.40
2023-01-11T20:14:23.068Z,20.33
2023-01-11T20:16:49.430Z,15.65
2023-01-11T20:19:15.883Z,26.58
2023-01-11T20:21:42.385Z,22.35
2023-01-11T20:24:12.689Z,23.05
2023-01-11T20:26:39.693Z,19.35
2023-01-11T20:29:06.827Z,25.80
2023-01-11T20:31:35.249Z,25.00
2023-01-11T20:34:10.529Z,21.60
2023-01-11T20:36:37.380Z,41.30
2023-01-11T20:39:04.947Z,22.60
2023-01-11T20:41:46.753Z,19.80
2023-01-11T20:44:16.054Z,23.15
2023-01-11T20:46:42.908Z,14.80
2023-01-11T20:49:09.297Z,25.58
2023-01-11T20:51:36.259Z,16.15
2023-01-11T20:54:04.228Z,24.02
2023-01-11T20:56:31.052Z,18.38
2023-01-11T20:58:57.448Z,28.90
2023-01-11T21:01:26.873Z,27.17
2023-01-11T21:03:54.763Z,23.65
2023-01-11T21:06:21.228Z,22.15
2023-01-11T21:08:47.621Z,31.90
2023-01-11T21:11:15.511Z,28.73
2023-01-11T21:13:41.887Z,20.60
2023-01-11T21:16:14.195Z,24.30
2023-01-11T21:18:43.634Z,22.58
2023-01-11T21:21:13.881Z,23.33
2023-01-11T21:23:40.500Z,19.83
2023-01-11T21:26:15.813Z,23.80
2023-01-11T21:28:43.113Z,18.45
2023-01-11T21:31:11.618Z,26.98
2023-01-11T21:33:39.270Z,24.27
2023-01-11T21:36:09.159Z,20.35
2023-01-11T21:38:35.621Z,26.70
2023-01-11T21:41:05.911Z,17.30
2023-01-11T21:43:32.442Z,16.08
2023-01-11T21:45:59.134Z,23.02
2023-01-11T21:48:26.199Z,26.02
2023-01-11T21:50:52.594Z,23.35
2023-01-11T21:53:30.341Z,21.98
2023-01-11T21:56:01.271Z,23.80
2023-01-11T21:58:27.678Z,21.00
2023-01-11T22:00:54.173Z,25.92
2023-01-11T22:03:20.663Z,22.98
2023-01-11T22:05:47.035Z,26.42
2023-01-11T22:08:13.451Z,30.35
2023-01-11T22:10:39.804Z,28.73
2023-01-11T22:13:06.316Z,20.65
2023-01-11T22:15:32.678Z,22.60
2023-01-11T22:17:59.076Z,22.75
2023-01-11T22:20:25.540Z,19.30
2023-01-11T22:22:51.941Z,18.65
2023-01-11T22:25:18.335Z,26.02
2023-01-11T22:27:44.779Z,22.60
2023-01-11T22:30:11.575Z,23.10
2023-01-11T22:32:37.922Z,23.98
2023-01-11T22:35:04.847Z,22.98
2023-01-11T22:37:31.201Z,18.13
2023-01-11T22:40:00.705Z,21.83
2023-01-11T22:42:27.791Z,17.58
2023-01-11T22:44:55.139Z,26.20
2023-01-11T22:47:21.625Z,20.70
2023-01-11T22:49:53.621Z,30.02
2023-01-11T22:52:21.567Z,22.25
2023-01-11T22:54:48.205Z,21.63
2023-01-11T22:57:14.739Z,21.60
2023-01-11T22:59:41.115Z,21.08
2023-01-11T23:02:07.613Z,17.88
2023-01-11T23:04:33.974Z,23.98
2023-01-11T23:07:00.530Z,18.15
2023-01-11T23:09:27.154Z,17.00
2023-01-11T23:12:12.330Z,18.48
2023-01-11T23:14:38.724Z,18.38
2023-01-11T23:17:08.934Z,20.25
2023-01-11T23:19:37.100Z,15.10
2023-01-11T23:22:04.191Z,17.05
2023-01-11T23:24:31.010Z,19.35
2023-01-11T23:26:57.810Z,16.60
2023-01-11T23:29:24.383Z,17.88
2023-01-11T23:31:50.999Z,17.98
2023-01-11T23:34:17.658Z,20.45
2023-01-11T23:36:44.357Z,15.77
2023-01-11T23:39:16.331Z,20.92
2023-01-11T23:42:01.298Z,20.70
2023-01-11T23:44:27.856Z,15.93
2023-01-11T23:47:12.960Z,14.55
2023-01-11T23:49:39.374Z,16.15
2023-01-11T23:52:06.499Z,13.43
2023-01-11T23:54:33.997Z,17.42
2023-01-11T23:57:01.752Z,23.20
2023-01-11T23:59:28.414Z,16.85
